createdAt,value
2023-02-22T00:00:17.467Z,39.7
2023-02-22T00:05:17.453Z,39.6
2023-02-22T00:10:17.666Z,39.6
2023-02-22T00:15:17.301Z,39.6
2023-02-22T00:20:18.780Z,39.8
2023-02-22T00:25:17.463Z,39.8
2023-02-22T00:30:18.402Z,39.8
2023-02-22T00:35:17.287Z,39.7
2023-02-22T00:40:17.775Z,39.8
2023-02-22T00:45:17.369Z,39.7
2023-02-22T00:50:17.735Z,39.9
2023-02-22T00:55:17.391Z,39.7
2023-02-22T01:00:17.730Z,40.0
2023-02-22T01:05:17.455Z,40.0
2023-02-22T01:10:17.563Z,40.1
2023-02-22T01:15:17.536Z,40.2
2023-02-22T01:20:17.503Z,40.3
2023-02-22T01:25:17.727Z,40.4
2023-02-22T01:30:17.818Z,40.5
2023-02-22T01:35:17.475Z,40.5
2023-02-22T01:40:17.835Z,40.6
2023-02-22T01:45:17.455Z,40.8
2023-02-22T01:50:18.046Z,40.8
2023-02-22T01:55:17.562Z,40.7
2023-02-22T02:00:17.894Z,40.7
2023-02-22T02:05:17.610Z,40.4
2023-02-22T02:10:17.963Z,40.2
2023-02-22T02:15:17.635Z,40.3
2023-02-22T02:20:17.633Z,40.2
2023-02-22T02:25:17.870Z,40.2
2023-02-22T02:30:18.086Z,40.3
2023-02-22T02:35:17.859Z,40.3
2023-02-22T02:40:18.010Z,40.3
2023-02-22T02:45:17.739Z,40.1
2023-02-22T02:50:17.777Z,40.1
2023-02-22T02:55:17.907Z,39.9
2023-02-22T03:00:17.992Z,39.8
2023-02-22T03:05:17.747Z,39.8
2023-02-22T03:10:18.076Z,39.9
2023-02-22T03:15:17.744Z,39.9
2023-02-22T03:20:17.853Z,40.0
2023-02-22T03:25:17.928Z,40.0
2023-02-22T03:30:17.989Z,40.0
2023-02-22T03:35:18.333Z,40.0
2023-02-22T03:40:18.035Z,40.1
2023-02-22T03:45:17.844Z,40.1
2023-02-22T03:50:17.898Z,40.2
2023-02-22T03:55:18.056Z,40.2
2023-02-22T04:00:18.012Z,40.2
2023-02-22T04:05:17.990Z,40.1
2023-02-22T04:10:18.486Z,40.0
2023-02-22T04:15:17.949Z,40.0
2023-02-22T04:20:18.323Z,39.8
2023-02-22T04:25:17.985Z,39.8
2023-02-22T04:30:18.166Z,39.7
2023-02-22T04:35:18.478Z,39.6
2023-02-22T04:40:18.488Z,39.5
2023-02-22T04:45:18.239Z,39.4
2023-02-22T04:50:18.099Z,39.3
2023-02-22T04:55:18.169Z,39.3
2023-02-22T05:00:17.121Z,39.2
2023-02-22T05:05:17.158Z,39.1
2023-02-22T05:10:17.400Z,39.0
2023-02-22T05:15:17.019Z,38.9
2023-02-22T05:20:19.520Z,38.8
2023-02-22T05:25:17.237Z,38.6
2023-02-22T05:30:17.665Z,38.3
2023-02-22T05:35:17.154Z,38.2
2023-02-22T05:40:17.456Z,38.0
2023-02-22T05:45:17.191Z,37.9
2023-02-22T05:50:17.557Z,37.9
2023-02-22T05:55:17.356Z,37.8
2023-02-22T06:00:17.321Z,37.9
2023-02-22T06:05:17.286Z,37.8
2023-02-22T06:10:17.479Z,37.7
2023-02-22T06:15:17.256Z,37.7
2023-02-22T06:20:17.341Z,37.5
2023-02-22T06:25:17.439Z,37.5
2023-02-22T06:30:17.541Z,37.4
2023-02-22T06:35:17.293Z,37.3
2023-02-22T06:40:17.799Z,37.3
2023-02-22T06:45:18.386Z,37.2
2023-02-22T06:50:17.505Z,37.1
2023-02-22T06:55:17.384Z,37.1
2023-02-22T07:00:18.075Z,37.0
2023-02-22T07:05:17.348Z,37.0
2023-02-22T07:10:17.675Z,36.8
2023-02-22T07:15:17.374Z,36.9
2023-02-22T07:20:17.651Z,36.8
2023-02-22T07:25:17.528Z,36.7
2023-02-22T07:30:17.514Z,36.6
2023-02-22T07:35:17.594Z,36.5
2023-02-22T07:40:17.778Z,36.3
2023-02-22T07:45:17.479Z,36.3
2023-02-22T07:50:17.796Z,36.1
2023-02-22T07:55:17.730Z,36.0
2023-02-22T08:00:17.574Z,35.9
2023-02-22T08:05:17.958Z,35.8
2023-02-22T08:10:17.941Z,35.7
2023-02-22T08:15:17.602Z,35.8
2023-02-22T08:20:17.694Z,35.8
2023-02-22T08:25:17.730Z,35.7
2023-02-22T08:30:17.723Z,35.7
2023-02-22T08:35:17.655Z,35.7
2023-02-22T08:40:19.788Z,35.9
2023-02-22T08:45:17.782Z,35.8
2023-02-22T08:50:17.853Z,35.8
2023-02-22T08:55:17.803Z,35.7
2023-02-22T09:00:17.987Z,35.7
2023-02-22T09:05:17.773Z,35.7
2023-02-22T09:10:18.108Z,35.6
2023-02-22T09:15:17.836Z,35.6
2023-02-22T09:20:18.139Z,35.6
2023-02-22T09:25:18.164Z,35.5
2023-02-22T09:30:17.890Z,35.5
2023-02-22T09:35:17.765Z,35.5
2023-02-22T09:40:18.022Z,35.5
2023-02-22T09:45:17.842Z,35.5
2023-02-22T09:50:18.270Z,35.6
2023-02-22T09:55:17.932Z,35.5
2023-02-22T10:00:17.978Z,35.3
2023-02-22T10:10:18.347Z,35.3
2023-02-22T10:15:18.122Z,35.3
2023-02-22T10:20:18.146Z,35.4
2023-02-22T10:25:18.593Z,35.4
2023-02-22T10:30:24.566Z,35.4
2023-02-22T10:35:17.952Z,35.4
2023-02-22T10:40:18.331Z,35.4
2023-02-22T10:45:18.033Z,35.4
2023-02-22T10:50:18.218Z,35.3
2023-02-22T10:55:18.126Z,35.2
2023-02-22T11:00:18.378Z,35.2
2023-02-22T11:05:17.968Z,35.2
2023-02-22T11:10:18.278Z,35.2
2023-02-22T11:15:18.055Z,35.1
2023-02-22T11:20:18.486Z,34.9
2023-02-22T11:25:18.446Z,34.9
2023-02-22T11:30:18.292Z,34.9
2023-02-22T11:35:16.335Z,34.8
2023-02-22T11:40:16.480Z,34.8
2023-02-22T11:45:16.217Z,34.9
2023-02-22T11:50:16.289Z,34.9
2023-02-22T11:55:16.188Z,35.0
2023-02-22T12:00:16.702Z,35.2
2023-02-22T12:05:16.350Z,35.4
2023-02-22T12:10:16.608Z,35.6
2023-02-22T12:15:16.306Z,35.8
2023-02-22T12:20:16.401Z,35.9
2023-02-22T12:25:17.113Z,36.1
2023-02-22T12:30:16.534Z,36.5
2023-02-22T12:35:16.321Z,36.8
2023-02-22T12:40:16.660Z,37.0
2023-02-22T12:45:16.699Z,37.3
2023-02-22T12:50:16.515Z,37.6
2023-02-22T12:55:16.413Z,37.8
2023-02-22T13:00:16.563Z,38.1
2023-02-22T13:05:16.425Z,38.4
2023-02-22T13:10:16.543Z,38.6
2023-02-22T13:15:16.402Z,38.9
2023-02-22T13:20:16.686Z,39.2
2023-02-22T13:25:16.477Z,39.4
2023-02-22T13:30:16.838Z,39.5
2023-02-22T13:35:16.551Z,39.7
2023-02-22T13:40:16.961Z,39.9
2023-02-22T13:45:16.509Z,40.0
2023-02-22T13:50:16.791Z,40.3
2023-02-22T13:55:16.866Z,40.5
2023-02-22T14:00:16.749Z,40.6
2023-02-22T14:05:16.456Z,40.9
2023-02-22T14:10:16.747Z,40.9
2023-02-22T14:15:29.044Z,41.1
2023-02-22T14:20:16.687Z,41.3
2023-02-22T14:25:26.906Z,41.2
2023-02-22T14:30:17.488Z,41.2
2023-02-22T14:35:47.882Z,41.4
2023-02-22T14:40:16.730Z,41.6
2023-02-22T14:45:16.600Z,42.0
2023-02-22T14:50:16.878Z,42.1
2023-02-22T14:55:17.714Z,42.0
2023-02-22T15:00:16.986Z,42.2
2023-02-22T15:05:16.816Z,42.4
2023-02-22T15:10:16.981Z,42.3
2023-02-22T15:15:16.755Z,42.4
2023-02-22T15:20:16.963Z,42.5
2023-02-22T15:25:16.791Z,42.7
2023-02-22T15:30:16.979Z,42.6
2023-02-22T15:35:16.806Z,42.9
2023-02-22T15:40:17.109Z,43.6
2023-02-22T15:45:16.862Z,43.1
2023-02-22T15:50:17.064Z,43.0
2023-02-22T15:55:16.908Z,43.0
2023-02-22T16:00:17.194Z,43.6
2023-02-22T16:05:16.860Z,43.8
2023-02-22T16:10:17.549Z,43.5
2023-02-22T16:15:16.998Z,43.6
2023-02-22T16:20:16.981Z,43.4
2023-02-22T16:25:17.178Z,43.5
2023-02-22T16:30:23.926Z,43.5
2023-02-22T16:35:17.230Z,43.6
2023-02-22T16:40:17.171Z,43.5
2023-02-22T16:45:17.158Z,43.1
2023-02-22T16:50:17.311Z,43.0
2023-02-22T16:55:17.118Z,42.8
2023-02-22T17:00:17.110Z,42.9
2023-02-22T17:05:17.073Z,43.0
2023-02-22T17:10:17.533Z,42.8
2023-02-22T17:15:16.977Z,42.7
2023-02-22T17:20:17.969Z,42.7
2023-02-22T17:25:18.436Z,42.7
2023-02-22T17:30:17.193Z,42.5
2023-02-22T17:35:17.124Z,42.5
2023-02-22T17:40:17.470Z,42.6
2023-02-22T17:45:17.648Z,42.9
2023-02-22T17:50:17.202Z,42.9
2023-02-22T17:55:17.449Z,42.4
2023-02-22T18:00:17.302Z,42.2
2023-02-22T18:05:17.184Z,41.6
2023-02-22T18:10:17.357Z,41.7
2023-02-22T18:15:17.289Z,42.1
2023-02-22T18:20:17.527Z,40.5
2023-02-22T18:25:17.407Z,40.3
2023-02-22T18:30:17.649Z,40.4
2023-02-22T18:35:17.282Z,40.0
2023-02-22T18:40:17.477Z,40.0
2023-02-22T18:45:17.434Z,41.0
2023-02-22T18:50:17.426Z,40.9
2023-02-22T18:55:17.478Z,40.9
2023-02-22T19:00:17.442Z,41.1
2023-02-22T19:05:17.517Z,40.4
2023-02-22T19:10:17.550Z,40.8
2023-02-22T19:15:17.378Z,41.6
2023-02-22T19:20:17.553Z,40.7
2023-02-22T19:25:17.438Z,40.5
2023-02-22T19:30:17.716Z,39.9
2023-02-22T19:35:17.380Z,40.6
2023-02-22T19:40:18.443Z,41.2
2023-02-22T19:45:17.440Z,41.4
2023-02-22T19:50:17.559Z,40.8
2023-02-22T19:55:17.581Z,41.1
2023-02-22T20:00:17.600Z,40.7
2023-02-22T20:05:17.471Z,40.3
2023-02-22T20:10:17.843Z,40.2
2023-02-22T20:15:17.740Z,40.2
2023-02-22T20:20:17.776Z,40.4
2023-02-22T20:25:17.613Z,41.2
2023-02-22T20:30:17.620Z,41.1
2023-02-22T20:35:17.630Z,41.0
2023-02-22T20:40:18.038Z,40.6
2023-02-22T20:45:17.622Z,41.0
2023-02-22T20:50:18.660Z,41.0
2023-02-22T20:55:17.704Z,40.9
2023-02-22T21:00:17.797Z,40.9
2023-02-22T21:05:17.628Z,40.9
2023-02-22T21:10:17.784Z,40.8
2023-02-22T21:15:17.726Z,40.8
2023-02-22T21:20:17.836Z,40.8
2023-02-22T21:25:18.133Z,40.8
2023-02-22T21:30:17.845Z,40.7
2023-02-22T21:35:17.756Z,40.7
2023-02-22T21:40:17.900Z,40.6
2023-02-22T21:45:18.015Z,40.6
2023-02-22T21:50:18.495Z,40.6
2023-02-22T21:55:17.858Z,40.5
2023-02-22T22:00:18.330Z,40.4
2023-02-22T22:05:17.819Z,40.4
2023-02-22T22:10:17.994Z,40.4
2023-02-22T22:15:17.783Z,40.4
2023-02-22T22:20:17.996Z,40.3
2023-02-22T22:25:17.937Z,40.2
2023-02-22T22:30:17.950Z,40.2
2023-02-22T22:35:18.038Z,40.2
2023-02-22T22:40:18.098Z,40.1
2023-02-22T22:45:18.642Z,40.1
2023-02-22T22:50:18.046Z,40.0
2023-02-22T22:55:17.957Z,39.7
2023-02-22T23:00:18.144Z,39.7
2023-02-22T23:05:17.939Z,39.7
2023-02-22T23:10:18.673Z,39.7
2023-02-22T23:15:18.027Z,39.7
2023-02-22T23:20:18.062Z,40.0
2023-02-22T23:25:18.128Z,39.7
2023-02-22T23:30:18.244Z,39.6
2023-02-22T23:35:18.033Z,39.5
2023-02-22T23:40:18.292Z,39.5
2023-02-22T23:45:18.256Z,39.7
2023-02-22T23:50:18.250Z,39.6
2023-02-22T23:55:18.406Z,39.9
